createdAt,value
2019-06-10T00:02:17.390Z,13.49
2019-06-10T00:04:50.839Z,13.49
2019-06-10T00:07:21.101Z,13.48
2019-06-10T00:09:51.146Z,13.46
2019-06-10T00:12:22.062Z,13.46
2019-06-10T00:14:51.835Z,13.46
2019-06-10T00:17:21.504Z,13.45
2019-06-10T00:19:51.271Z,13.42
2019-06-10T00:22:21.556Z,13.42
2019-06-10T00:24:52.177Z,13.38
2019-06-10T00:27:45.521Z,13.38
2019-06-10T00:30:06.504Z,13.38
2019-06-10T00:32:36.066Z,13.37
2019-06-10T00:35:06.510Z,13.38
2019-06-10T00:37:37.242Z,13.38
2019-06-10T00:40:08.955Z,13.38
2019-06-10T00:42:42.953Z,13.40
2019-06-10T00:45:17.958Z,13.43
2019-06-10T00:47:47.171Z,13.43
2019-06-10T00:50:16.694Z,13.42
2019-06-10T00:52:46.104Z,13.43
2019-06-10T00:55:15.646Z,13.42
2019-06-10T00:57:45.486Z,13.41
2019-06-10T01:00:25.174Z,13.38
2019-06-10T01:02:46.593Z,13.38
2019-06-10T01:05:16.022Z,13.37
2019-06-10T01:07:45.530Z,13.35
2019-06-10T01:10:15.722Z,13.33
2019-06-10T01:12:45.142Z,13.30
2019-06-10T01:15:15.502Z,13.28
2019-06-10T01:17:45.060Z,13.26
2019-06-10T01:20:16.050Z,13.23
2019-06-10T01:22:45.787Z,13.19
2019-06-10T01:25:15.237Z,13.15
2019-06-10T01:27:44.640Z,13.10
2019-06-10T01:30:20.584Z,13.04
2019-06-10T01:32:45.750Z,13.01
2019-06-10T01:35:15.822Z,12.98
2019-06-10T01:37:46.562Z,12.94
2019-06-10T01:40:17.868Z,12.92
2019-06-10T01:42:47.485Z,12.90
2019-06-10T01:45:17.324Z,12.88
2019-06-10T01:47:51.105Z,12.89
2019-06-10T01:50:21.899Z,12.89
2019-06-10T01:52:51.692Z,12.87
2019-06-10T01:55:21.870Z,12.87
2019-06-10T01:57:51.925Z,12.84
2019-06-10T02:00:26.164Z,12.84
2019-06-10T02:02:58.315Z,12.82
2019-06-10T02:05:27.744Z,12.80
2019-06-10T02:07:57.347Z,12.80
2019-06-10T02:10:26.784Z,12.78
2019-06-10T02:12:56.304Z,12.78
2019-06-10T02:15:26.105Z,12.74
2019-06-10T02:17:55.651Z,12.77
2019-06-10T02:20:25.381Z,12.81
2019-06-10T02:22:55.244Z,12.83
2019-06-10T02:25:24.871Z,12.85
2019-06-10T02:27:54.294Z,12.89
2019-06-10T02:30:44.270Z,12.95
2019-06-10T02:33:02.499Z,12.98
2019-06-10T02:35:44.162Z,13.02
2019-06-10T02:38:03.801Z,13.05
2019-06-10T02:40:36.625Z,13.08
2019-06-10T02:43:04.679Z,13.14
2019-06-10T02:45:37.615Z,13.20
2019-06-10T02:48:06.648Z,13.25
2019-06-10T02:51:03.851Z,13.32
2019-06-10T02:53:35.855Z,13.44
2019-06-10T02:56:04.815Z,13.73
2019-06-10T02:58:38.759Z,13.92
2019-06-10T03:03:54.275Z,14.29
2019-06-10T03:06:29.759Z,15.06
2019-06-10T03:08:55.168Z,15.72
2019-06-10T03:11:28.078Z,16.23
2019-06-10T03:13:58.164Z,16.56
2019-06-10T03:16:52.740Z,16.89
2019-06-10T03:19:42.134Z,17.52
2019-06-10T03:21:55.987Z,18.39
2019-06-10T03:24:25.678Z,19.18
2019-06-10T03:26:58.537Z,19.71
2019-06-10T03:29:36.123Z,20.11
2019-06-10T03:32:07.511Z,20.51
2019-06-10T03:34:46.017Z,20.94
2019-06-10T03:37:16.333Z,21.40
2019-06-10T03:39:45.209Z,21.82
2019-06-10T03:42:15.014Z,21.71
2019-06-10T03:44:44.783Z,21.38
2019-06-10T03:47:16.846Z,20.74
2019-06-10T03:49:52.535Z,19.98
2019-06-10T03:52:19.354Z,19.41
2019-06-10T03:54:49.102Z,18.83
2019-06-10T03:57:19.232Z,18.39
2019-06-10T03:59:49.066Z,18.00
2019-06-10T04:02:19.400Z,18.17
2019-06-10T04:05:03.958Z,18.99
2019-06-10T04:07:38.648Z,19.77
2019-06-10T04:10:09.149Z,20.44
2019-06-10T04:12:46.746Z,20.90
2019-06-10T04:15:19.682Z,21.07
2019-06-10T04:18:15.297Z,20.95
2019-06-10T04:20:45.211Z,20.78
2019-06-10T04:23:15.093Z,20.37
2019-06-10T04:25:45.433Z,20.03
2019-06-10T04:28:17.747Z,19.63
2019-06-10T04:30:49.770Z,19.32
2019-06-10T04:33:20.884Z,19.00
2019-06-10T04:35:51.991Z,18.73
2019-06-10T04:38:23.350Z,18.55
2019-06-10T04:40:54.204Z,18.39
2019-06-10T04:43:25.993Z,18.31
2019-06-10T04:45:55.394Z,18.15
2019-06-10T04:48:26.206Z,18.09
2019-06-10T04:50:57.382Z,17.97
2019-06-10T04:53:28.014Z,17.88
2019-06-10T04:55:58.335Z,17.82
2019-06-10T04:58:29.149Z,17.73
2019-06-10T05:00:59.268Z,17.70
2019-06-10T05:03:32.973Z,17.65
2019-06-10T05:06:03.246Z,17.59
2019-06-10T05:08:33.940Z,17.52
2019-06-10T05:11:04.642Z,17.44
2019-06-10T05:13:34.182Z,17.36
2019-06-10T05:16:03.963Z,17.23
2019-06-10T05:18:33.590Z,17.29
2019-06-10T05:21:03.247Z,17.28
2019-06-10T05:23:33.237Z,17.31
2019-06-10T05:26:03.141Z,17.23
2019-06-10T05:28:34.154Z,17.15
2019-06-10T05:31:03.978Z,17.17
2019-06-10T05:33:33.709Z,17.24
2019-06-10T05:36:03.294Z,17.26
2019-06-10T05:38:35.104Z,17.23
2019-06-10T05:41:04.005Z,17.24
2019-06-10T05:43:34.666Z,17.17
2019-06-10T05:46:07.287Z,17.16
2019-06-10T05:48:36.714Z,17.24
2019-06-10T05:51:07.101Z,17.32
2019-06-10T05:53:36.677Z,17.36
2019-06-10T05:56:07.822Z,17.37
2019-06-10T05:58:39.898Z,17.46
2019-06-10T06:01:09.436Z,17.46
2019-06-10T06:03:39.004Z,17.56
2019-06-10T06:06:14.890Z,17.72
2019-06-10T06:08:44.326Z,17.77
2019-06-10T06:11:15.629Z,17.85
2019-06-10T06:13:45.034Z,17.90
2019-06-10T06:16:14.486Z,17.99
2019-06-10T06:18:44.004Z,17.99
2019-06-10T06:21:25.310Z,17.97
2019-06-10T06:23:44.660Z,17.97
2019-06-10T06:26:16.957Z,17.95
2019-06-10T06:28:46.385Z,18.00
2019-06-10T06:31:15.838Z,18.05
2019-06-10T06:33:45.279Z,18.12
2019-06-10T06:36:14.777Z,18.11
2019-06-10T06:38:44.221Z,18.26
2019-06-10T06:41:15.133Z,18.38
2019-06-10T06:43:45.363Z,18.51
2019-06-10T06:46:17.133Z,18.81
2019-06-10T06:48:48.445Z,18.97
2019-06-10T06:51:35.466Z,19.20
2019-06-10T06:53:52.978Z,19.36
2019-06-10T06:56:23.099Z,19.48
2019-06-10T06:58:52.894Z,19.61
2019-06-10T07:01:25.959Z,19.52
2019-06-10T07:03:57.471Z,19.40
2019-06-10T07:06:27.455Z,19.35
2019-06-10T07:09:04.485Z,19.26
2019-06-10T07:11:33.974Z,19.19
2019-06-10T07:14:04.896Z,19.04
2019-06-10T07:16:36.142Z,18.98
2019-06-10T07:19:05.836Z,18.72
2019-06-10T07:21:56.934Z,18.50
2019-06-10T07:24:07.181Z,18.42
2019-06-10T07:26:42.110Z,18.45
2019-06-10T07:29:07.946Z,18.60
2019-06-10T07:31:39.694Z,18.72
2019-06-10T07:34:12.854Z,18.87
2019-06-10T07:36:44.023Z,18.99
2019-06-10T07:39:14.989Z,19.06
2019-06-10T07:41:47.943Z,19.13
2019-06-10T07:44:17.109Z,19.25
2019-06-10T07:46:47.031Z,19.31
2019-06-10T07:49:16.625Z,19.40
2019-06-10T07:51:46.971Z,19.34
2019-06-10T07:54:16.488Z,19.27
2019-06-10T07:56:50.434Z,19.23
2019-06-10T07:59:17.190Z,19.33
2019-06-10T08:01:51.496Z,19.50
2019-06-10T08:04:17.903Z,19.64
2019-06-10T08:06:49.890Z,19.87
2019-06-10T08:09:22.764Z,20.09
2019-06-10T08:11:53.350Z,20.31
2019-06-10T08:14:23.018Z,20.45
2019-06-10T08:16:53.292Z,20.52
2019-06-10T08:19:34.411Z,20.71
2019-06-10T08:21:54.826Z,20.95
2019-06-10T08:24:24.807Z,21.23
2019-06-10T08:26:54.539Z,21.39
2019-06-10T08:29:24.181Z,21.41
2019-06-10T08:31:54.085Z,21.25
2019-06-10T08:34:23.913Z,20.98
2019-06-10T08:36:54.289Z,20.71
2019-06-10T08:39:24.298Z,20.56
2019-06-10T08:41:53.960Z,20.56
2019-06-10T08:44:23.371Z,20.55
2019-06-10T08:46:53.130Z,20.58
2019-06-10T08:49:23.879Z,20.63
2019-06-10T08:51:54.111Z,20.55
2019-06-10T08:54:24.355Z,20.71
2019-06-10T08:57:04.918Z,20.83
2019-06-10T08:59:34.374Z,21.05
2019-06-10T09:02:03.918Z,21.17
2019-06-10T09:04:33.432Z,21.14
2019-06-10T09:07:04.310Z,21.05
2019-06-10T09:09:35.024Z,21.00
2019-06-10T09:12:04.723Z,21.15
2019-06-10T09:14:34.255Z,21.31
2019-06-10T09:17:03.691Z,21.20
2019-06-10T09:19:33.354Z,21.03
2019-06-10T09:22:03.896Z,20.84
2019-06-10T09:24:33.582Z,20.81
2019-06-10T09:27:03.131Z,20.87
2019-06-10T09:29:34.465Z,20.88
2019-06-10T09:32:03.920Z,20.75
2019-06-10T09:34:33.527Z,20.75
2019-06-10T09:37:04.066Z,20.75
2019-06-10T09:39:36.202Z,20.79
2019-06-10T09:42:06.749Z,20.71
2019-06-10T09:44:37.141Z,20.87
2019-06-10T09:47:06.862Z,20.94
2019-06-10T09:49:38.286Z,20.99
2019-06-10T09:52:08.075Z,21.07
2019-06-10T09:54:38.652Z,21.04
2019-06-10T09:57:08.369Z,20.99
2019-06-10T09:59:37.842Z,20.95
2019-06-10T10:02:08.486Z,21.02
2019-06-10T10:04:44.219Z,21.09
2019-06-10T10:07:13.918Z,21.15
2019-06-10T10:09:47.026Z,21.29
2019-06-10T10:12:15.448Z,21.39
2019-06-10T10:14:48.124Z,21.38
2019-06-10T10:17:16.423Z,21.41
2019-06-10T10:19:48.658Z,21.43
2019-06-10T10:22:17.550Z,21.51
2019-06-10T10:24:47.550Z,21.66
2019-06-10T10:27:17.195Z,21.79
2019-06-10T10:29:48.852Z,21.83
2019-06-10T10:32:18.155Z,21.83
2019-06-10T10:34:48.711Z,21.86
2019-06-10T10:37:19.642Z,21.90
2019-06-10T10:39:49.143Z,22.01
2019-06-10T10:42:18.733Z,22.06
2019-06-10T10:44:51.010Z,22.18
2019-06-10T10:47:37.987Z,22.27
2019-06-10T10:50:08.018Z,22.30
2019-06-10T10:52:38.898Z,22.47
2019-06-10T10:55:13.079Z,22.48
2019-06-10T10:57:41.362Z,22.39
2019-06-10T11:00:15.026Z,22.19
2019-06-10T11:02:46.690Z,22.12
2019-06-10T11:05:33.338Z,22.16
2019-06-10T11:08:04.323Z,22.17
2019-06-10T11:10:34.122Z,22.11
2019-06-10T11:13:07.132Z,21.99
2019-06-10T11:15:36.890Z,22.04
2019-06-10T11:18:09.049Z,21.90
2019-06-10T11:20:38.503Z,21.94
2019-06-10T11:23:08.016Z,21.96
2019-06-10T11:25:37.617Z,21.91
2019-06-10T11:28:07.477Z,21.90
2019-06-10T11:30:37.070Z,21.98
2019-06-10T11:33:06.693Z,22.04
2019-06-10T11:35:36.312Z,22.15
2019-06-10T11:38:05.862Z,22.21
2019-06-10T11:40:35.291Z,22.30
2019-06-10T11:43:04.917Z,22.37
2019-06-10T11:45:34.383Z,22.42
2019-06-10T11:48:04.197Z,22.54
2019-06-10T11:50:34.091Z,22.65
2019-06-10T11:53:06.121Z,22.75
2019-06-10T11:55:39.132Z,22.74
2019-06-10T11:58:09.049Z,22.69
2019-06-10T12:00:39.216Z,22.75
2019-06-10T12:03:09.264Z,22.79
2019-06-10T12:05:41.740Z,22.76
2019-06-10T12:08:13.162Z,22.80
2019-06-10T12:10:43.439Z,22.76
2019-06-10T12:13:22.465Z,22.72
2019-06-10T12:16:49.427Z,22.72
2019-06-10T12:18:23.122Z,22.80
2019-06-10T12:20:58.970Z,22.87
2019-06-10T12:23:24.333Z,22.96
2019-06-10T12:25:59.276Z,22.92
2019-06-10T12:28:28.519Z,22.87
2019-06-10T12:31:01.551Z,23.03
2019-06-10T12:33:29.960Z,23.15
2019-06-10T12:36:06.543Z,23.23
2019-06-10T12:38:33.880Z,23.23
2019-06-10T12:41:08.968Z,23.27
2019-06-10T12:43:35.074Z,23.31
2019-06-10T12:46:04.733Z,23.24
2019-06-10T12:48:34.581Z,23.23
2019-06-10T12:51:19.512Z,23.26
2019-06-10T12:53:49.311Z,23.23
2019-06-10T12:56:22.793Z,23.31
2019-06-10T12:58:58.071Z,23.18
2019-06-10T13:01:33.611Z,23.15
2019-06-10T13:04:08.041Z,23.06
2019-06-10T13:07:00.364Z,22.97
2019-06-10T13:09:46.916Z,22.94
2019-06-10T13:12:18.296Z,22.91
2019-06-10T13:14:57.817Z,22.92
2019-06-10T13:17:34.028Z,22.95
2019-06-10T13:20:08.295Z,23.04
2019-06-10T13:23:35.290Z,23.11
2019-06-10T13:25:54.548Z,23.18
2019-06-10T13:28:35.572Z,23.10
2019-06-10T13:31:11.828Z,23.06
2019-06-10T13:33:42.874Z,23.08
2019-06-10T13:36:17.394Z,23.08
2019-06-10T13:38:53.234Z,23.16
2019-06-10T13:41:24.775Z,23.28
2019-06-10T13:44:26.326Z,23.24
2019-06-10T13:46:55.593Z,23.26
2019-06-10T13:49:25.567Z,23.30
2019-06-10T13:51:56.528Z,23.35
2019-06-10T13:54:28.097Z,23.37
2019-06-10T13:56:59.100Z,23.33
2019-06-10T13:59:30.360Z,23.35
2019-06-10T14:02:10.245Z,23.28
2019-06-10T14:04:42.450Z,23.22
2019-06-10T14:07:18.902Z,23.25
2019-06-10T14:09:50.038Z,23.26
2019-06-10T14:12:23.662Z,23.27
2019-06-10T14:14:53.384Z,23.34
2019-06-10T14:17:46.361Z,23.37
2019-06-10T14:20:26.740Z,23.40
2019-06-10T14:22:59.535Z,23.51
2019-06-10T14:25:34.684Z,23.51
2019-06-10T14:28:19.687Z,23.53
2019-06-10T14:30:53.406Z,23.62
2019-06-10T14:33:23.231Z,23.73
2019-06-10T14:35:53.698Z,23.76
2019-06-10T14:38:27.947Z,23.79
2019-06-10T14:41:04.872Z,23.82
2019-06-10T14:43:34.168Z,23.74
2019-06-10T14:46:07.252Z,23.72
2019-06-10T14:48:37.972Z,23.73
2019-06-10T14:51:09.394Z,23.85
2019-06-10T14:53:42.861Z,23.94
2019-06-10T14:56:18.949Z,23.96
2019-06-10T14:58:47.132Z,23.96
2019-06-10T15:01:26.142Z,24.00
2019-06-10T15:03:58.066Z,24.04
2019-06-10T15:06:27.790Z,24.02
2019-06-10T15:09:02.033Z,24.01
2019-06-10T15:11:32.608Z,23.96
2019-06-10T15:14:03.593Z,23.92
2019-06-10T15:16:35.901Z,23.93
2019-06-10T15:19:15.847Z,24.03
2019-06-10T15:21:39.999Z,24.19
2019-06-10T15:24:09.947Z,24.46
2019-06-10T15:26:42.351Z,24.80
2019-06-10T15:29:17.086Z,25.33
2019-06-10T15:32:09.151Z,25.66
2019-06-10T15:34:26.419Z,25.67
2019-06-10T15:36:55.961Z,25.42
2019-06-10T15:39:25.412Z,25.28
2019-06-10T15:41:58.110Z,25.19
2019-06-10T15:44:47.622Z,25.12
2019-06-10T15:47:04.750Z,25.33
2019-06-10T15:49:34.147Z,25.88
2019-06-10T15:52:06.248Z,26.70
2019-06-10T15:54:42.510Z,26.71
2019-06-10T15:57:39.489Z,26.54
2019-06-10T16:00:02.902Z,26.42
2019-06-10T16:02:33.466Z,26.26
2019-06-10T16:05:06.060Z,26.62
2019-06-10T16:07:38.759Z,27.08
2019-06-10T16:10:12.817Z,27.29
2019-06-10T16:12:43.769Z,27.12
2019-06-10T16:15:16.141Z,26.79
2019-06-10T16:17:47.787Z,26.82
2019-06-10T16:20:17.830Z,26.99
2019-06-10T16:22:47.806Z,27.46
2019-06-10T16:25:17.763Z,27.74
2019-06-10T16:27:51.118Z,27.62
2019-06-10T16:30:18.631Z,27.48
2019-06-10T16:32:48.067Z,27.30
2019-06-10T16:35:20.812Z,27.20
2019-06-10T16:38:38.584Z,27.05
2019-06-10T16:41:32.261Z,27.50
2019-06-10T16:44:13.619Z,28.53
2019-06-10T16:46:46.833Z,28.64
2019-06-10T16:49:53.765Z,28.10
2019-06-10T16:52:26.105Z,27.55
2019-06-10T16:54:57.861Z,27.54
2019-06-10T16:57:27.786Z,28.24
2019-06-10T17:00:07.025Z,28.72
2019-06-10T17:02:33.170Z,29.19
2019-06-10T17:05:06.729Z,29.40
2019-06-10T17:07:36.556Z,29.68
2019-06-10T17:10:09.482Z,29.47
2019-06-10T17:12:38.975Z,29.56
2019-06-10T17:15:13.049Z,29.21
2019-06-10T17:17:42.455Z,29.05
2019-06-10T17:20:13.097Z,29.41
2019-06-10T17:22:43.440Z,29.79
2019-06-10T17:25:15.659Z,30.08
2019-06-10T17:27:45.285Z,30.31
2019-06-10T17:30:15.152Z,30.53
2019-06-10T17:32:44.596Z,30.55
2019-06-10T17:35:14.368Z,30.29
2019-06-10T17:37:43.820Z,30.29
2019-06-10T17:40:14.014Z,30.19
2019-06-10T17:42:43.417Z,29.82
2019-06-10T17:45:14.745Z,29.28
2019-06-10T17:47:44.534Z,28.72
2019-06-10T17:50:16.430Z,28.35
2019-06-10T17:52:45.820Z,27.99
2019-06-10T17:55:15.513Z,27.98
2019-06-10T17:57:47.481Z,27.65
2019-06-10T18:00:16.793Z,27.23
2019-06-10T18:02:46.859Z,26.91
2019-06-10T18:05:16.287Z,26.95
2019-06-10T18:07:47.063Z,27.28
2019-06-10T18:10:16.702Z,27.15
2019-06-10T18:12:46.113Z,26.75
2019-06-10T18:15:16.903Z,26.43
2019-06-10T18:17:46.334Z,26.50
2019-06-10T18:20:16.345Z,26.65
2019-06-10T18:22:45.822Z,27.10
2019-06-10T18:25:16.848Z,27.23
2019-06-10T18:27:46.264Z,27.07
2019-06-10T18:30:15.965Z,26.76
2019-06-10T18:32:45.448Z,26.22
2019-06-10T18:35:15.446Z,25.74
2019-06-10T18:37:44.839Z,25.33
2019-06-10T18:40:17.989Z,25.05
2019-06-10T18:42:47.464Z,24.69
2019-06-10T18:45:22.433Z,24.38
2019-06-10T18:47:53.309Z,24.11
2019-06-10T18:50:25.985Z,23.78
2019-06-10T18:52:57.396Z,23.61
2019-06-10T18:55:29.077Z,23.40
2019-06-10T19:00:22.732Z,23.09
2019-06-10T19:03:13.034Z,22.91
2019-06-10T19:05:36.665Z,22.73
2019-06-10T19:08:07.117Z,22.57
2019-06-10T19:10:37.471Z,22.45
2019-06-10T19:13:08.155Z,22.34
2019-06-10T19:15:37.845Z,22.27
2019-06-10T19:18:13.137Z,22.19
2019-06-10T19:20:45.094Z,22.06
2019-06-10T19:23:14.472Z,22.01
2019-06-10T19:25:44.412Z,21.98
2019-06-10T19:28:14.529Z,21.91
2019-06-10T19:30:44.853Z,21.83
2019-06-10T19:33:14.323Z,21.76
2019-06-10T19:35:43.875Z,21.71
2019-06-10T19:38:13.292Z,21.62
2019-06-10T19:40:44.117Z,21.53
2019-06-10T19:43:13.609Z,21.45
2019-06-10T19:45:44.000Z,21.32
2019-06-10T19:48:13.439Z,21.23
2019-06-10T19:50:48.090Z,21.12
2019-06-10T19:53:14.293Z,21.01
2019-06-10T19:55:44.466Z,20.89
2019-06-10T19:58:14.934Z,20.76
2019-06-10T20:00:50.772Z,20.62
2019-06-10T20:03:16.887Z,20.50
2019-06-10T20:05:47.096Z,20.32
2019-06-10T20:08:16.698Z,20.19
2019-06-10T20:10:46.071Z,20.07
2019-06-10T20:13:15.504Z,19.93
2019-06-10T20:15:46.688Z,19.82
2019-06-10T20:18:16.070Z,19.75
2019-06-10T20:20:47.132Z,19.69
2019-06-10T20:23:18.621Z,19.61
2019-06-10T20:25:48.847Z,19.55
2019-06-10T20:28:18.290Z,19.48
2019-06-10T20:30:49.109Z,19.41
2019-06-10T20:33:33.868Z,19.36
2019-06-10T20:36:03.501Z,19.29
2019-06-10T20:38:32.996Z,19.20
2019-06-10T20:41:02.838Z,19.08
2019-06-10T20:43:32.855Z,18.99
2019-06-10T20:46:05.605Z,18.92
2019-06-10T20:48:33.615Z,18.81
2019-06-10T20:51:03.387Z,18.73
2019-06-10T20:53:33.826Z,18.67
2019-06-10T20:56:04.149Z,18.61
2019-06-10T20:58:33.510Z,18.55
2019-06-10T21:01:04.873Z,18.50
2019-06-10T21:03:34.489Z,18.45
2019-06-10T21:06:04.992Z,18.39
2019-06-10T21:08:35.038Z,18.33
2019-06-10T21:11:04.456Z,18.27
2019-06-10T21:13:33.842Z,18.14
2019-06-10T21:16:03.966Z,18.05
2019-06-10T21:18:33.753Z,17.98
2019-06-10T21:21:03.194Z,17.90
2019-06-10T21:23:32.583Z,17.84
2019-06-10T21:26:02.906Z,17.77
2019-06-10T21:28:32.879Z,17.74
2019-06-10T21:31:02.960Z,17.70
2019-06-10T21:33:33.455Z,17.65
2019-06-10T21:36:03.955Z,17.58
2019-06-10T21:38:33.585Z,17.53
2019-06-10T21:41:03.478Z,17.45
2019-06-10T21:43:33.322Z,17.41
2019-06-10T21:46:03.693Z,17.36
2019-06-10T21:48:33.494Z,17.32
2019-06-10T21:51:02.903Z,17.26
2019-06-10T21:53:32.272Z,17.21
2019-06-10T21:56:01.772Z,17.16
2019-06-10T21:58:32.782Z,17.07
2019-06-10T22:01:12.624Z,16.98
2019-06-10T22:03:35.394Z,16.90
2019-06-10T22:06:04.818Z,16.85
2019-06-10T22:08:46.062Z,16.74
2019-06-10T22:11:15.390Z,16.67
2019-06-10T22:13:46.102Z,16.63
2019-06-10T22:16:15.870Z,16.59
2019-06-10T22:18:46.554Z,16.55
2019-06-10T22:21:15.955Z,16.52
2019-06-10T22:23:48.792Z,16.43
2019-06-10T22:26:18.121Z,16.38
2019-06-10T22:28:47.956Z,16.33
2019-06-10T22:31:23.034Z,16.29
2019-06-10T22:33:49.534Z,16.23
2019-06-10T22:36:18.898Z,16.19
2019-06-10T22:38:48.361Z,16.16
2019-06-10T22:41:17.757Z,16.10
2019-06-10T22:43:47.211Z,16.04
2019-06-10T22:46:16.743Z,15.98
2019-06-10T22:48:46.865Z,15.89
2019-06-10T22:51:16.299Z,15.84
2019-06-10T22:53:46.129Z,15.76
2019-06-10T22:56:15.531Z,15.71
2019-06-10T22:58:44.897Z,15.65
2019-06-10T23:01:14.403Z,15.60
2019-06-10T23:03:44.867Z,15.56
2019-06-10T23:06:14.262Z,15.54
2019-06-10T23:08:43.838Z,15.48
2019-06-10T23:11:13.239Z,15.45
2019-06-10T23:13:42.618Z,15.40
2019-06-10T23:16:12.982Z,15.33
2019-06-10T23:18:42.598Z,15.24
2019-06-10T23:21:13.437Z,15.16
2019-06-10T23:23:43.181Z,15.10
2019-06-10T23:26:13.123Z,15.06
2019-06-10T23:28:42.962Z,15.00
2019-06-10T23:31:12.863Z,14.98
2019-06-10T23:33:42.663Z,14.92
2019-06-10T23:36:13.061Z,14.87
2019-06-10T23:38:43.219Z,14.82
2019-06-10T23:41:13.050Z,14.79
2019-06-10T23:43:42.489Z,14.79
2019-06-10T23:46:12.210Z,14.77
2019-06-10T23:48:42.382Z,14.71
2019-06-10T23:51:12.241Z,14.66
2019-06-10T23:53:42.125Z,14.64
2019-06-10T23:56:12.798Z,14.65
2019-06-10T23:58:43.311Z,14.61
